Time;durP1;ratioP1;P1;durP2;ratioP2;P2;SDS_P1;SDS_P2;PMS_P1;PMS_P2;Temp;Humidity;BMP_temperature;BMP_pressure;BME280_temperature;BME280_humidity;BME280_pressure;Samples;Min_cycle;Max_cycle;Signal;HPM_P1;HPM_P2
2022/10/27 00:00:06;;;;;;;;;;;18.20;99.90;18.30;100105.00;;;;335193;28;87208;-94
2022/10/27 00:00:18;;;;;;;;;;;18.30;99.90;18.30;100111.00;;;;339086;28;83460;-93
2022/10/27 00:00:30;;;;;;;;;;;18.30;99.90;18.30;100112.00;;;;336228;28;87653;-93
2022/10/27 00:00:42;;;;;;;;;;;18.20;99.90;18.30;100115.00;;;;337865;28;83615;-93
2022/10/27 00:00:54;;;;;;;;;;;18.30;99.90;18.40;100117.00;;;;339029;28;88813;-93
2022/10/27 00:01:05;;;;;;;;;;;18.20;99.90;18.40;100116.00;;;;338051;28;83362;-93
2022/10/27 00:01:17;;;;;;;;;;;18.20;99.90;18.40;100115.00;;;;336340;28;90391;-94
2022/10/27 00:01:29;;;;;;;;;;;18.20;99.90;18.50;100110.00;;;;338031;28;82515;-93
2022/10/27 00:01:41;;;;;;;;;;;18.30;99.90;18.50;100110.00;;;;336375;28;89191;-92
2022/10/27 00:01:53;;;;;;;;;;;18.30;99.90;18.40;100111.00;;;;335463;29;83245;-92
2022/10/27 00:02:05;;;;;;;;;;;18.30;99.90;18.40;100110.00;;;;338849;28;89618;-93
2022/10/27 00:02:17;;;;;;;;;;;18.20;99.90;18.40;100107.00;;;;338038;28;82528;-92
2022/10/27 00:02:28;;;;;;;;;;;18.30;99.90;18.30;100105.00;;;;336242;28;91567;-92
2022/10/27 00:02:41;;;;;;;;;;;18.20;99.90;18.30;100111.00;;;;339056;28;83645;-93
2022/10/27 00:02:53;;;;;;;;;;;18.20;99.90;18.30;100109.00;;;;340162;28;90138;-93
2022/10/27 00:03:05;;;;;;;;;;;18.20;99.90;18.30;100112.00;;;;335291;29;83476;-92
2022/10/27 00:03:16;;;;;;;;;;;18.20;99.90;18.20;100111.00;;;;337441;28;90531;-92
2022/10/27 00:03:28;;;;;;;;;;;18.20;99.90;18.30;100112.00;;;;339372;28;83524;-92
2022/10/27 00:03:40;;;;;;;;;;;18.20;99.90;18.30;100112.00;;;;334521;29;91921;-92
2022/10/27 00:03:52;;;;;;;;;;;18.20;99.90;18.30;100113.00;;;;341354;28;83606;-92
2022/10/27 00:04:04;;;;;;;;;;;18.20;99.90;18.30;100111.00;;;;338888;28;88498;-93
2022/10/27 00:04:15;;;;;;;;;;;18.20;99.90;18.30;100114.00;;;;338017;28;83586;-92
2022/10/27 00:04:27;;;;;;;;;;;18.20;99.90;18.30;100106.00;;;;340012;28;91208;-93
2022/10/27 00:04:39;;;;;;;;;;;18.20;99.90;18.30;100112.00;;;;340536;28;83518;-92
2022/10/27 00:04:51;;;;;;;;;;;18.20;99.90;18.30;100114.00;;;;336074;28;91321;-93
2022/10/27 00:05:03;;;;;;;;;;;18.20;99.90;18.30;100114.00;;;;342154;28;82381;-93
2022/10/27 00:05:14;;;;;;;;;;;18.20;99.90;18.30;100116.00;;;;340207;28;88964;-93
2022/10/27 00:05:26;;;;;;;;;;;18.20;99.90;18.30;100108.00;;;;335215;29;83508;-92
2022/10/27 00:05:38;;;;;;;;;;;18.20;99.90;18.30;100112.00;;;;337758;28;87325;-93
2022/10/27 00:05:50;;;;;;;;;;;18.20;99.90;18.30;100115.00;;;;339161;28;83511;-92
2022/10/27 00:06:04;;;;;;;;;;;18.20;99.90;18.40;100107.00;;;;339774;28;88555;-92
2022/10/27 00:06:15;;;;;;;;;;;18.20;99.90;18.30;100114.00;;;;335374;28;83642;-92
2022/10/27 00:06:27;;;;;;;;;;;18.20;99.90;18.30;100110.00;;;;336161;28;89334;-93
2022/10/27 00:06:39;;;;;;;;;;;18.20;99.90;18.30;100109.00;;;;339140;28;83583;-92
2022/10/27 00:06:51;;;;;;;;;;;18.20;99.90;18.30;100112.00;;;;338775;28;90359;-93
2022/10/27 00:07:02;;;;;;;;;;;18.20;99.90;18.30;100108.00;;;;337990;28;83550;-92
2022/10/27 00:07:14;;;;;;;;;;;18.20;99.90;18.30;100107.00;;;;340062;28;89542;-93
2022/10/27 00:07:26;;;;;;;;;;;18.20;99.90;18.30;100115.00;;;;338008;28;83443;-92
2022/10/27 00:07:38;;;;;;;;;;;18.10;99.90;18.30;100104.00;;;;339959;28;89812;-94
2022/10/27 00:07:49;;;;;;;;;;;18.20;99.90;18.30;100115.00;;;;339234;28;83465;-92
2022/10/27 00:08:01;;;;;;;;;;;18.20;99.90;18.30;100112.00;;;;336239;28;88190;-92
2022/10/27 00:08:18;;;;;;;;;;;18.20;99.90;18.30;100111.00;;;;337584;28;83551;-92
2022/10/27 00:08:29;;;;;;;;;;;18.20;99.90;18.30;100110.00;;;;336089;28;93278;-92
2022/10/27 00:08:41;;;;;;;;;;;18.10;99.90;18.30;100108.00;;;;336459;28;82649;-93
2022/10/27 00:08:53;;;;;;;;;;;18.10;99.90;18.30;100114.00;;;;338697;28;89807;-93
2022/10/27 00:09:05;;;;;;;;;;;18.20;99.90;18.30;100108.00;;;;337883;28;82670;-93
2022/10/27 00:09:17;;;;;;;;;;;18.10;99.90;18.40;100112.00;;;;338764;28;90400;-93
2022/10/27 00:09:29;;;;;;;;;;;18.20;99.90;18.40;100115.00;;;;337883;28;83596;-92
2022/10/27 00:09:40;;;;;;;;;;;18.10;99.90;18.30;100120.00;;;;338347;28;88443;-93
2022/10/27 00:09:52;;;;;;;;;;;18.10;99.90;18.30;100107.00;;;;336702;28;83329;-93
2022/10/27 00:10:05;;;;;;;;;;;18.20;99.90;18.30;100115.00;;;;336132;28;88816;-92
2022/10/27 00:10:17;;;;;;;;;;;18.20;99.90;18.40;100111.00;;;;337938;28;84277;-93
2022/10/27 00:10:28;;;;;;;;;;;18.20;99.90;18.30;100116.00;;;;337237;28;89390;-92
2022/10/27 00:10:41;;;;;;;;;;;18.20;99.90;18.30;100112.00;;;;339378;28;83387;-93
2022/10/27 00:10:57;;;;;;;;;;;18.20;99.90;18.30;100118.00;;;;336025;28;87225;-93
2022/10/27 00:11:08;;;;;;;;;;;18.20;99.90;18.30;100115.00;;;;338000;28;83493;-93
2022/10/27 00:11:20;;;;;;;;;;;18.20;99.90;18.30;100109.00;;;;338688;28;91969;-92
2022/10/27 00:11:32;;;;;;;;;;;18.20;99.90;18.30;100113.00;;;;338038;28;83339;-92
2022/10/27 00:11:44;;;;;;;;;;;18.10;99.90;18.20;100109.00;;;;336169;28;92069;-92
2022/10/27 00:11:56;;;;;;;;;;;18.20;99.90;18.20;100116.00;;;;337526;28;84110;-91
2022/10/27 00:12:07;;;;;;;;;;;18.10;99.90;18.20;100117.00;;;;336259;28;87628;-92
2022/10/27 00:12:19;;;;;;;;;;;18.10;99.90;18.20;100115.00;;;;336454;28;83657;-92
2022/10/27 00:12:31;;;;;;;;;;;18.10;99.90;18.20;100114.00;;;;338693;28;92106;-92
2022/10/27 00:12:43;;;;;;;;;;;18.10;99.90;18.20;100122.00;;;;338325;28;83429;-92
2022/10/27 00:12:55;;;;;;;;;;;18.10;99.90;18.20;100109.00;;;;336408;28;89498;-92
2022/10/27 00:13:07;;;;;;;;;;;18.10;99.90;18.20;100114.00;;;;337747;28;82614;-93
2022/10/27 00:13:19;;;;;;;;;;;18.10;99.90;18.20;100117.00;;;;337590;28;89485;-92
2022/10/27 00:13:30;;;;;;;;;;;18.10;99.90;18.30;100116.00;;;;336620;28;83599;-92
2022/10/27 00:13:42;;;;;;;;;;;18.10;99.90;18.30;100115.00;;;;338846;28;88414;-93
2022/10/27 00:13:54;;;;;;;;;;;18.10;99.90;18.20;100114.00;;;;339355;28;83429;-93
2022/10/27 00:14:06;;;;;;;;;;;18.10;99.90;18.30;100116.00;;;;338868;28;87946;-93
2022/10/27 00:14:18;;;;;;;;;;;18.10;99.90;18.20;100120.00;;;;338003;28;83610;-93
2022/10/27 00:14:29;;;;;;;;;;;18.10;99.90;18.20;100112.00;;;;338834;28;90241;-93
2022/10/27 00:14:41;;;;;;;;;;;18.10;99.90;18.20;100120.00;;;;337775;28;83581;-93
2022/10/27 00:14:53;;;;;;;;;;;18.10;99.90;18.20;100120.00;;;;337613;28;89376;-92
2022/10/27 00:15:05;;;;;;;;;;;18.10;99.90;18.20;100113.00;;;;339283;28;83389;-93
2022/10/27 00:15:17;;;;;;;;;;;18.10;99.90;18.20;100117.00;;;;340087;28;91308;-93
2022/10/27 00:15:29;;;;;;;;;;;18.10;99.90;18.20;100117.00;;;;336771;28;83506;-92
2022/10/27 00:15:40;;;;;;;;;;;18.10;99.90;18.20;100115.00;;;;338946;28;88032;-92
2022/10/27 00:15:59;;;;;;;;;;;18.10;99.90;18.20;100113.00;;;;337957;28;83488;-92
2022/10/27 00:16:14;;;;;;;;;;;18.10;99.90;18.20;100116.00;;;;337605;28;88399;-92
2022/10/27 00:16:25;;;;;;;;;;;18.10;99.90;18.20;100114.00;;;;340671;28;83598;-93
2022/10/27 00:16:37;;;;;;;;;;;18.10;99.90;18.30;100118.00;;;;334932;28;92319;-93
2022/10/27 00:16:56;;;;;;;;;;;18.10;99.90;18.20;100119.00;;;;338118;28;84028;-92
2022/10/27 00:17:07;;;;;;;;;;;18.10;99.90;18.20;100116.00;;;;337450;28;91614;-92
2022/10/27 00:17:19;;;;;;;;;;;18.10;99.90;18.20;100129.00;;;;337571;28;83611;-93
2022/10/27 00:17:31;;;;;;;;;;;18.10;99.90;18.10;100120.00;;;;338970;28;89501;-92
2022/10/27 00:17:43;;;;;;;;;;;18.00;99.90;18.10;100121.00;;;;339424;28;83360;-92
2022/10/27 00:17:55;;;;;;;;;;;18.10;99.90;18.10;100116.00;;;;337670;28;89306;-93
2022/10/27 00:18:08;;;;;;;;;;;18.10;99.90;18.10;100117.00;;;;336527;28;82588;-93
2022/10/27 00:18:20;;;;;;;;;;;18.10;99.90;18.10;100120.00;;;;339743;28;90749;-92
2022/10/27 00:18:32;;;;;;;;;;;18.00;99.90;18.20;100115.00;;;;340658;28;82507;-92
2022/10/27 00:18:44;;;;;;;;;;;18.10;99.90;18.10;100130.00;;;;340188;28;89693;-92
2022/10/27 00:18:55;;;;;;;;;;;18.10;99.90;18.20;100122.00;;;;339371;28;83459;-93
2022/10/27 00:19:07;;;;;;;;;;;18.00;99.90;18.10;100123.00;;;;339631;28;88476;-92
2022/10/27 00:19:20;;;;;;;;;;;18.10;99.90;18.20;100120.00;;;;338123;28;83275;-93
2022/10/27 00:19:32;;;;;;;;;;;18.00;99.90;18.20;100124.00;;;;337600;28;88778;-92
2022/10/27 00:19:43;;;;;;;;;;;18.00;99.90;18.10;100131.00;;;;338844;28;83598;-92
2022/10/27 00:19:55;;;;;;;;;;;18.00;99.90;18.10;100127.00;;;;340386;28;88425;-92
2022/10/27 00:20:07;;;;;;;;;;;18.00;99.90;18.20;100123.00;;;;339035;28;83512;-93
2022/10/27 00:20:19;;;;;;;;;;;18.00;99.90;18.20;100124.00;;;;333573;29;91990;-93
2022/10/27 00:20:31;;;;;;;;;;;18.00;99.90;18.20;100129.00;;;;335529;29;83446;-92
2022/10/27 00:20:43;;;;;;;;;;;18.00;99.90;18.10;100121.00;;;;338561;28;92980;-92
2022/10/27 00:21:01;;;;;;;;;;;18.00;99.90;18.10;100124.00;;;;338076;28;83453;-93
2022/10/27 00:21:15;;;;;;;;;;;18.00;99.90;18.10;100116.00;;;;338442;28;90469;-92
2022/10/27 00:21:27;;;;;;;;;;;18.00;99.90;18.10;100114.00;;;;337849;28;82693;-93
2022/10/27 00:21:38;;;;;;;;;;;18.00;99.90;18.20;100125.00;;;;336356;28;88018;-92
2022/10/27 00:21:50;;;;;;;;;;;18.00;99.90;18.20;100122.00;;;;339152;28;83550;-93
2022/10/27 00:22:02;;;;;;;;;;;18.00;99.90;18.20;100123.00;;;;336160;28;87115;-93
2022/10/27 00:22:14;;;;;;;;;;;18.00;99.90;18.20;100123.00;;;;337621;28;82617;-93
2022/10/27 00:22:26;;;;;;;;;;;18.00;99.90;18.20;100126.00;;;;338716;28;90281;-93
2022/10/27 00:22:38;;;;;;;;;;;18.00;99.90;18.20;100112.00;;;;335473;29;82597;-92
2022/10/27 00:22:49;;;;;;;;;;;18.00;99.90;18.10;100119.00;;;;336997;28;90429;-93
2022/10/27 00:23:01;;;;;;;;;;;18.00;99.90;18.10;100120.00;;;;339272;28;83569;-92
2022/10/27 00:23:15;;;;;;;;;;;18.00;99.90;18.10;100120.00;;;;339776;28;87433;-93
2022/10/27 00:23:26;;;;;;;;;;;18.00;99.90;18.10;100125.00;;;;340418;28;83605;-93
2022/10/27 00:23:39;;;;;;;;;;;18.00;99.90;18.10;100119.00;;;;337462;28;89877;-94
2022/10/27 00:23:50;;;;;;;;;;;18.00;99.90;18.20;100126.00;;;;337888;28;84011;-93
2022/10/27 00:24:02;;;;;;;;;;;18.00;99.90;18.10;100119.00;;;;338804;28;88433;-92
2022/10/27 00:24:14;;;;;;;;;;;18.00;99.90;18.10;100119.00;;;;337884;28;83593;-92
2022/10/27 00:24:26;;;;;;;;;;;18.00;99.90;18.10;100126.00;;;;338995;28;87118;-92
2022/10/27 00:24:38;;;;;;;;;;;18.00;99.90;18.10;100115.00;;;;338069;28;82496;-92
2022/10/27 00:24:49;;;;;;;;;;;18.00;99.90;18.10;100112.00;;;;336976;28;89784;-92
2022/10/27 00:25:02;;;;;;;;;;;18.00;99.90;18.20;100123.00;;;;339173;28;83590;-92
2022/10/27 00:25:13;;;;;;;;;;;18.00;99.90;18.20;100119.00;;;;333605;29;88364;-92
2022/10/27 00:25:25;;;;;;;;;;;18.00;99.90;18.20;100115.00;;;;339077;28;82536;-92
2022/10/27 00:25:37;;;;;;;;;;;18.00;99.90;18.20;100116.00;;;;338886;28;87925;-93
2022/10/27 00:25:55;;;;;;;;;;;18.00;99.90;18.10;100117.00;;;;338096;28;82424;-92
2022/10/27 00:26:09;;;;;;;;;;;18.00;99.90;18.10;100119.00;;;;339683;28;90435;-92
2022/10/27 00:26:21;;;;;;;;;;;18.00;99.90;18.10;100121.00;;;;339240;28;83483;-92
2022/10/27 00:26:32;;;;;;;;;;;18.00;99.90;18.20;100121.00;;;;333446;29;92616;-92
2022/10/27 00:26:44;;;;;;;;;;;18.00;99.90;18.20;100117.00;;;;339342;28;82572;-92
2022/10/27 00:26:56;;;;;;;;;;;18.00;99.90;18.10;100105.00;;;;337501;28;89246;-92
2022/10/27 00:27:08;;;;;;;;;;;18.00;99.90;18.10;100113.00;;;;336728;28;82503;-92
2022/10/27 00:27:20;;;;;;;;;;;18.00;99.90;18.20;100120.00;;;;338284;28;87360;-93
2022/10/27 00:27:31;;;;;;;;;;;18.00;99.90;18.20;100115.00;;;;338884;28;83647;-92
2022/10/27 00:27:43;;;;;;;;;;;18.00;99.90;18.20;100120.00;;;;338775;28;89406;-92
2022/10/27 00:27:55;;;;;;;;;;;18.00;99.90;18.10;100115.00;;;;339085;28;83550;-92
2022/10/27 00:28:07;;;;;;;;;;;18.00;99.90;18.20;100117.00;;;;337430;28;89306;-91
2022/10/27 00:28:18;;;;;;;;;;;18.00;99.90;18.20;100117.00;;;;337791;28;83528;-92
2022/10/27 00:28:30;;;;;;;;;;;18.00;99.90;18.20;100117.00;;;;337463;28;90588;-91
2022/10/27 00:28:42;;;;;;;;;;;18.00;99.90;18.20;100116.00;;;;336443;28;82645;-91
2022/10/27 00:28:53;;;;;;;;;;;18.00;99.90;18.20;100123.00;;;;335046;29;88427;-92
2022/10/27 00:29:05;;;;;;;;;;;18.00;99.90;18.10;100115.00;;;;337608;28;83522;-92
2022/10/27 00:29:17;;;;;;;;;;;18.00;99.90;18.10;100116.00;;;;338917;28;89222;-92
2022/10/27 00:29:29;;;;;;;;;;;18.00;99.90;18.20;100123.00;;;;335390;29;83543;-92
2022/10/27 00:29:40;;;;;;;;;;;18.00;99.90;18.30;100121.00;;;;338708;28;87190;-92
2022/10/27 00:29:52;;;;;;;;;;;18.00;99.90;18.30;100121.00;;;;336537;28;82553;-92
2022/10/27 00:30:05;;;;;;;;;;;18.00;99.90;18.30;100122.00;;;;336362;28;88589;-92
2022/10/27 00:30:17;;;;;;;;;;;18.00;99.90;18.30;100123.00;;;;337936;28;82583;-92
2022/10/27 00:30:29;;;;;;;;;;;18.00;99.90;18.40;100116.00;;;;337472;28;88129;-92
2022/10/27 00:30:41;;;;;;;;;;;18.00;99.90;18.40;100122.00;;;;337860;28;83669;-92
2022/10/27 00:31:06;;;;;;;;;;;18.00;99.90;18.30;100118.00;;;;337341;28;92734;-91
2022/10/27 00:31:19;;;;;;;;;;;18.00;99.90;18.20;100115.00;;;;340490;28;83447;-91
2022/10/27 00:31:31;;;;;;;;;;;18.00;99.90;18.20;100120.00;;;;337632;28;88597;-92
2022/10/27 00:31:43;;;;;;;;;;;18.00;99.90;18.20;100117.00;;;;339461;28;83346;-92
2022/10/27 00:31:55;;;;;;;;;;;18.00;99.90;18.20;100113.00;;;;338827;28;89370;-92
2022/10/27 00:32:07;;;;;;;;;;;18.00;99.90;18.20;100120.00;;;;336487;28;82526;-92
2022/10/27 00:32:18;;;;;;;;;;;18.00;99.90;18.20;100119.00;;;;336386;28;87295;-92
2022/10/27 00:32:30;;;;;;;;;;;18.00;99.90;18.20;100117.00;;;;339204;28;82426;-92
2022/10/27 00:32:42;;;;;;;;;;;18.00;99.90;18.20;100112.00;;;;340248;28;88462;-92
2022/10/27 00:32:53;;;;;;;;;;;18.00;99.90;18.20;100125.00;;;;340549;28;83641;-92
2022/10/27 00:33:05;;;;;;;;;;;18.00;99.90;18.20;100116.00;;;;337634;28;90509;-93
2022/10/27 00:33:17;;;;;;;;;;;18.00;99.90;18.20;100116.00;;;;341634;28;83463;-92
2022/10/27 00:33:29;;;;;;;;;;;18.00;99.90;18.20;100121.00;;;;339825;28;89386;-93
2022/10/27 00:33:41;;;;;;;;;;;18.00;99.90;18.20;100118.00;;;;336532;28;82659;-94
2022/10/27 00:33:52;;;;;;;;;;;18.00;99.90;18.20;100118.00;;;;337529;28;87285;-93
2022/10/27 00:34:04;;;;;;;;;;;18.00;99.90;18.20;100125.00;;;;339122;28;82596;-92
2022/10/27 00:34:16;;;;;;;;;;;18.00;99.90;18.20;100121.00;;;;337621;28;88763;-93
2022/10/27 00:34:28;;;;;;;;;;;18.00;99.90;18.30;100125.00;;;;339451;28;82457;-92
2022/10/27 00:34:39;;;;;;;;;;;18.00;99.90;18.20;100107.00;;;;332224;29;89137;-93
2022/10/27 00:34:51;;;;;;;;;;;18.00;99.90;18.20;100120.00;;;;339023;28;83515;-93
2022/10/27 00:35:03;;;;;;;;;;;18.00;99.90;18.10;100115.00;;;;339739;28;89403;-92
2022/10/27 00:35:15;;;;;;;;;;;18.00;99.90;18.10;100117.00;;;;335319;29;82548;-93
2022/10/27 00:35:27;;;;;;;;;;;18.00;99.90;18.10;100116.00;;;;336150;28;90766;-92
2022/10/27 00:35:38;;;;;;;;;;;18.00;99.90;18.10;100113.00;;;;340648;28;82592;-93
2022/10/27 00:35:50;;;;;;;;;;;18.00;99.90;18.10;100125.00;;;;338695;28;86608;-93
2022/10/27 00:36:06;;;;;;;;;;;17.90;99.90;18.10;100121.00;;;;337996;28;83438;-92
2022/10/27 00:36:20;;;;;;;;;;;18.00;99.90;18.10;100123.00;;;;336151;28;90353;-92
2022/10/27 00:36:31;;;;;;;;;;;17.90;99.90;18.10;100116.00;;;;335164;29;83514;-93
2022/10/27 00:36:43;;;;;;;;;;;17.90;99.90;18.10;100116.00;;;;335964;28;88604;-93
2022/10/27 00:36:55;;;;;;;;;;;17.90;99.90;18.10;100111.00;;;;339301;28;82552;-93
2022/10/27 00:37:07;;;;;;;;;;;17.90;99.90;18.20;100113.00;;;;337534;28;90565;-92
2022/10/27 00:37:18;;;;;;;;;;;17.90;99.90;18.10;100115.00;;;;338971;28;82762;-93
2022/10/27 00:37:30;;;;;;;;;;;17.90;99.90;18.10;100112.00;;;;338934;28;88386;-93
2022/10/27 00:37:42;;;;;;;;;;;17.90;99.90;18.10;100118.00;;;;335206;29;83574;-92
2022/10/27 00:37:54;;;;;;;;;;;17.90;99.90;18.10;100113.00;;;;337603;28;88377;-92
2022/10/27 00:38:05;;;;;;;;;;;17.90;99.90;18.10;100117.00;;;;340391;28;83493;-93
2022/10/27 00:38:17;;;;;;;;;;;17.90;99.90;18.20;100112.00;;;;334886;29;91628;-89
2022/10/27 00:38:29;;;;;;;;;;;17.90;99.90;18.10;100111.00;;;;337834;28;83517;-92
2022/10/27 00:38:41;;;;;;;;;;;17.90;99.90;18.20;100109.00;;;;336135;28;88338;-92
2022/10/27 00:38:53;;;;;;;;;;;17.90;99.90;18.20;100109.00;;;;340643;28;83470;-92
2022/10/27 00:39:05;;;;;;;;;;;17.90;99.90;18.20;100101.00;;;;337351;28;90271;-92
2022/10/27 00:39:17;;;;;;;;;;;17.90;99.90;18.20;100108.00;;;;336398;28;83616;-93
2022/10/27 00:39:29;;;;;;;;;;;17.90;99.90;18.10;100106.00;;;;337621;28;88664;-92
2022/10/27 00:39:41;;;;;;;;;;;17.90;99.90;18.10;100106.00;;;;336600;28;82431;-92
2022/10/27 00:39:53;;;;;;;;;;;17.90;99.90;18.00;100101.00;;;;338912;28;88821;-92
2022/10/27 00:40:05;;;;;;;;;;;17.90;99.90;18.00;100101.00;;;;340674;28;82566;-92
2022/10/27 00:40:17;;;;;;;;;;;17.90;99.90;18.00;100103.00;;;;337614;28;88729;-92
2022/10/27 00:40:29;;;;;;;;;;;17.90;99.90;18.10;100106.00;;;;335204;29;83702;-93
2022/10/27 00:40:41;;;;;;;;;;;17.90;99.90;18.10;100100.00;;;;338536;28;89586;-92
2022/10/27 00:40:53;;;;;;;;;;;17.90;99.90;18.10;100101.00;;;;340551;28;83599;-93
2022/10/27 00:41:06;;;;;;;;;;;17.90;99.90;18.10;100106.00;;;;336062;28;93084;-92
2022/10/27 00:41:28;;;;;;;;;;;17.90;99.90;18.10;100105.00;;;;335301;29;82532;-92
2022/10/27 00:41:41;;;;;;;;;;;17.90;99.90;18.10;100104.00;;;;337615;28;89679;-93
2022/10/27 00:41:52;;;;;;;;;;;17.90;99.90;18.10;100105.00;;;;341798;28;83762;-92
2022/10/27 00:42:04;;;;;;;;;;;17.90;99.90;18.10;100093.00;;;;337363;28;89694;-92
2022/10/27 00:42:16;;;;;;;;;;;17.90;99.90;18.10;100106.00;;;;336751;28;83338;-92
2022/10/27 00:42:28;;;;;;;;;;;17.90;99.90;18.10;100098.00;;;;337882;28;88435;-92
2022/10/27 00:42:39;;;;;;;;;;;17.90;99.90;18.10;100100.00;;;;337994;28;82759;-92
2022/10/27 00:42:51;;;;;;;;;;;17.90;99.90;18.00;100098.00;;;;337533;28;88320;-92
2022/10/27 00:43:41;;;;;;;;;;;17.90;99.90;18.10;100099.00;;;;336581;28;83517;-92
2022/10/27 00:43:53;;;;;;;;;;;17.80;99.90;18.00;100104.00;;;;335888;28;95085;-92
2022/10/27 00:44:29;;;;;;;;;;;17.80;99.90;18.00;100109.00;;;;336562;28;83444;-92
2022/10/27 00:44:46;;;;;;;;;;;17.80;99.90;18.00;100101.00;;;;338845;28;89176;-92
2022/10/27 00:44:58;;;;;;;;;;;17.80;99.90;18.00;100103.00;;;;339201;28;83516;-92
2022/10/27 00:45:10;;;;;;;;;;;17.80;99.90;18.00;100099.00;;;;336292;28;88383;-92
2022/10/27 00:45:22;;;;;;;;;;;17.80;99.90;18.00;100097.00;;;;337598;28;83585;-93
2022/10/27 00:45:33;;;;;;;;;;;17.80;99.90;18.00;100099.00;;;;338819;28;91434;-92
2022/10/27 00:45:45;;;;;;;;;;;17.80;99.90;18.00;100098.00;;;;336657;28;82535;-91
2022/10/27 00:46:25;;;;;;;;;;;17.80;99.90;18.00;100105.00;;;;338811;28;90171;-92
2022/10/27 00:46:39;;;;;;;;;;;17.80;99.90;17.80;100104.00;;;;336428;28;82721;-91
2022/10/27 00:46:51;;;;;;;;;;;17.80;99.90;17.80;100105.00;;;;340187;28;88089;-92
2022/10/27 00:47:08;;;;;;;;;;;17.80;99.90;17.90;100110.00;;;;339859;28;82576;-92
2022/10/27 00:47:24;;;;;;;;;;;17.80;99.90;17.90;100101.00;;;;337580;28;87963;-92
2022/10/27 00:47:36;;;;;;;;;;;17.80;99.90;17.90;100110.00;;;;339243;28;83557;-92
2022/10/27 00:47:48;;;;;;;;;;;17.80;99.90;17.80;100106.00;;;;336025;28;91554;-92
2022/10/27 00:48:00;;;;;;;;;;;17.80;99.90;17.80;100107.00;;;;337849;28;84292;-92
2022/10/27 00:48:12;;;;;;;;;;;17.80;99.90;17.70;100105.00;;;;338919;28;89790;-93
2022/10/27 00:48:24;;;;;;;;;;;17.80;99.90;17.80;100107.00;;;;337798;28;83472;-92
2022/10/27 00:48:35;;;;;;;;;;;17.80;99.90;17.80;100090.00;;;;334780;29;91284;-91
2022/10/27 00:48:47;;;;;;;;;;;17.80;99.90;17.80;100107.00;;;;339077;28;82557;-92
2022/10/27 00:49:07;;;;;;;;;;;17.70;99.90;17.90;100112.00;;;;334870;29;90765;-92
2022/10/27 00:49:25;;;;;;;;;;;17.70;99.90;17.90;100109.00;;;;336336;28;83520;-92
2022/10/27 00:50:02;;;;;;;;;;;17.70;99.90;17.90;100114.00;;;;337429;28;89536;-92
2022/10/27 00:50:16;;;;;;;;;;;17.70;99.90;17.90;100105.00;;;;337871;28;83431;-92
2022/10/27 00:50:28;;;;;;;;;;;17.70;99.90;17.90;100101.00;;;;337404;28;89168;-91
2022/10/27 00:50:39;;;;;;;;;;;17.70;99.90;18.00;100106.00;;;;339122;28;83539;-92
2022/10/27 00:50:51;;;;;;;;;;;17.70;99.90;18.00;100105.00;;;;338819;28;89471;-92
2022/10/27 00:51:03;;;;;;;;;;;17.70;99.90;18.00;100103.00;;;;338041;28;82496;-92
2022/10/27 00:51:15;;;;;;;;;;;17.70;99.90;18.00;100103.00;;;;337412;28;90976;-92
2022/10/27 00:51:27;;;;;;;;;;;17.70;99.90;17.90;100109.00;;;;335960;28;83596;-92
2022/10/27 00:51:41;;;;;;;;;;;17.80;99.90;17.90;100104.00;;;;337596;28;89342;-91
2022/10/27 00:51:57;;;;;;;;;;;17.70;99.90;17.90;100110.00;;;;340596;28;83423;-92
2022/10/27 00:52:26;;;;;;;;;;;17.70;99.90;17.90;100112.00;;;;338864;28;89133;-91
2022/10/27 00:52:43;;;;;;;;;;;17.70;99.90;17.90;100110.00;;;;337542;28;83526;-91
2022/10/27 00:52:56;;;;;;;;;;;17.70;99.90;17.90;100113.00;;;;335014;29;87762;-92
2022/10/27 00:53:08;;;;;;;;;;;17.70;99.90;17.90;100111.00;;;;337967;28;83482;-91
2022/10/27 00:53:20;;;;;;;;;;;17.70;99.90;17.90;100112.00;;;;338684;28;90684;-92
2022/10/27 00:53:32;;;;;;;;;;;17.70;99.90;17.90;100110.00;;;;340514;28;83690;-91
2022/10/27 00:53:44;;;;;;;;;;;17.70;99.90;18.00;100108.00;;;;338932;28;88040;-92
2022/10/27 00:53:56;;;;;;;;;;;17.70;99.90;17.90;100117.00;;;;339261;28;83411;-91
2022/10/27 00:54:07;;;;;;;;;;;17.70;99.90;17.90;100114.00;;;;339904;28;89883;-92
2022/10/27 00:54:19;;;;;;;;;;;17.70;99.90;17.90;100116.00;;;;339402;28;83247;-91
2022/10/27 00:54:35;;;;;;;;;;;17.70;99.90;17.90;100109.00;;;;338705;28;90606;-91
2022/10/27 00:54:47;;;;;;;;;;;17.70;99.90;17.90;100116.00;;;;339198;28;83465;-92
2022/10/27 00:55:04;;;;;;;;;;;17.70;99.90;17.80;100124.00;;;;340255;28;89550;-91
2022/10/27 00:55:27;;;;;;;;;;;17.70;99.90;17.80;100125.00;;;;335243;29;82561;-92
2022/10/27 00:55:39;;;;;;;;;;;17.70;99.90;17.80;100119.00;;;;336204;28;88432;-91
2022/10/27 00:55:50;;;;;;;;;;;17.70;99.90;17.80;100116.00;;;;340187;28;82587;-91
2022/10/27 00:56:02;;;;;;;;;;;17.70;99.90;17.80;100120.00;;;;334708;28;91899;-92
2022/10/27 00:56:14;;;;;;;;;;;17.70;99.90;17.90;100125.00;;;;337912;28;83425;-92
2022/10/27 00:56:26;;;;;;;;;;;17.70;99.90;17.90;100121.00;;;;336083;28;91493;-92
2022/10/27 00:56:38;;;;;;;;;;;17.70;99.90;17.90;100123.00;;;;339139;28;82561;-92
2022/10/27 00:56:50;;;;;;;;;;;17.70;99.90;17.90;100125.00;;;;341191;28;90325;-92
2022/10/27 00:57:03;;;;;;;;;;;17.70;99.90;17.80;100125.00;;;;339167;28;83572;-92
2022/10/27 00:57:15;;;;;;;;;;;17.70;99.90;17.80;100124.00;;;;338792;28;88282;-91
2022/10/27 00:57:27;;;;;;;;;;;17.70;99.90;17.90;100124.00;;;;340336;28;82708;-91
2022/10/27 00:57:39;;;;;;;;;;;17.70;99.90;17.80;100125.00;;;;337418;28;92170;-92
2022/10/27 00:57:53;;;;;;;;;;;17.70;99.90;17.80;100120.00;;;;336401;28;83562;-91
2022/10/27 00:58:14;;;;;;;;;;;17.70;99.90;17.80;100126.00;;;;337565;28;89476;-91
2022/10/27 00:58:26;;;;;;;;;;;17.70;99.90;17.80;100126.00;;;;337722;28;83460;-93
2022/10/27 00:58:38;;;;;;;;;;;17.70;99.90;17.80;100120.00;;;;336112;28;89364;-92
2022/10/27 00:58:50;;;;;;;;;;;17.60;99.90;17.80;100115.00;;;;339214;28;83410;-91
2022/10/27 00:59:02;;;;;;;;;;;17.60;99.90;17.80;100121.00;;;;337334;28;90145;-91
2022/10/27 00:59:13;;;;;;;;;;;17.60;99.90;17.80;100116.00;;;;338161;28;83657;-91
2022/10/27 00:59:25;;;;;;;;;;;17.60;99.90;17.80;100125.00;;;;338587;28;89541;-92
2022/10/27 00:59:37;;;;;;;;;;;17.60;99.90;17.80;100125.00;;;;340499;28;83577;-92
2022/10/27 00:59:49;;;;;;;;;;;17.60;99.90;17.80;100125.00;;;;338447;28;88403;-91
2022/10/27 01:00:02;;;;;;;;;;;17.60;99.90;17.80;100110.00;;;;339418;28;82590;-91
2022/10/27 01:00:14;;;;;;;;;;;17.60;99.90;17.80;100127.00;;;;337447;28;89613;-91
2022/10/27 01:00:26;;;;;;;;;;;17.60;99.90;17.80;100123.00;;;;339171;28;82545;-91
2022/10/27 01:00:38;;;;;;;;;;;17.60;99.90;17.90;100119.00;;;;337267;28;91701;-92
2022/10/27 01:00:50;;;;;;;;;;;17.60;99.90;17.90;100113.00;;;;337857;28;83208;-91
2022/10/27 01:01:02;;;;;;;;;;;17.60;99.90;17.90;100118.00;;;;336036;28;92001;-91
2022/10/27 01:01:14;;;;;;;;;;;17.60;99.90;17.90;100121.00;;;;338080;28;82405;-91
2022/10/27 01:01:26;;;;;;;;;;;17.60;99.90;17.90;100124.00;;;;340102;28;91710;-91
2022/10/27 01:01:38;;;;;;;;;;;17.60;99.90;17.80;100124.00;;;;337835;28;82567;-91
2022/10/27 01:01:51;;;;;;;;;;;17.60;99.90;17.80;100121.00;;;;337391;28;90048;-91
2022/10/27 01:02:03;;;;;;;;;;;17.60;99.90;17.80;100119.00;;;;336442;28;82562;-91
2022/10/27 01:02:15;;;;;;;;;;;17.60;99.90;17.70;100123.00;;;;338968;28;87629;-91
2022/10/27 01:02:26;;;;;;;;;;;17.60;99.90;17.70;100122.00;;;;336153;28;83535;-91
2022/10/27 01:02:38;;;;;;;;;;;17.60;99.90;17.70;100109.00;;;;335766;28;90016;-91